sensor_id;sensor_type;location;lat;lon;timestamp;P1;durP1;ratioP1;P2;durP2;ratioP2
45274;SDS011;31019;43.780;25.948;2024-01-27T00:02:03;72.45;;;66.53;;
45274;SDS011;31019;43.780;25.948;2024-01-27T00:04:30;85.68;;;78.60;;
45274;SDS011;31019;43.780;25.948;2024-01-27T00:06:57;73.78;;;67.78;;
45274;SDS011;31019;43.780;25.948;2024-01-27T00:09:24;74.20;;;68.13;;
45274;SDS011;31019;43.780;25.948;2024-01-27T00:11:50;70.18;;;64.47;;
45274;SDS011;31019;43.780;25.948;2024-01-27T00:14:17;77.05;;;70.95;;
45274;SDS011;31019;43.780;25.948;2024-01-27T00:16:46;78.28;;;72.13;;
45274;SDS011;31019;43.780;25.948;2024-01-27T00:19:12;80.65;;;74.05;;
45274;SDS011;31019;43.780;25.948;2024-01-27T00:21:42;86.32;;;79.68;;
45274;SDS011;31019;43.780;25.948;2024-01-27T00:24:09;77.43;;;71.47;;
45274;SDS011;31019;43.780;25.948;2024-01-27T00:26:36;82.47;;;75.97;;
45274;SDS011;31019;43.780;25.948;2024-01-27T00:29:02;80.35;;;74.05;;
45274;SDS011;31019;43.780;25.948;2024-01-27T00:31:29;69.13;;;63.42;;
45274;SDS011;31019;43.780;25.948;2024-01-27T00:33:57;69.97;;;63.97;;
45274;SDS011;31019;43.780;25.948;2024-01-27T00:36:24;82.90;;;75.85;;
45274;SDS011;31019;43.780;25.948;2024-01-27T00:38:51;96.20;;;88.80;;
45274;SDS011;31019;43.780;25.948;2024-01-27T00:41:18;92.93;;;85.82;;
45274;SDS011;31019;43.780;25.948;2024-01-27T00:43:45;81.65;;;75.05;;
45274;SDS011;31019;43.780;25.948;2024-01-27T00:46:12;86.05;;;79.07;;
45274;SDS011;31019;43.780;25.948;2024-01-27T00:48:39;94.97;;;87.68;;
45274;SDS011;31019;43.780;25.948;2024-01-27T00:51:08;93.57;;;86.43;;
45274;SDS011;31019;43.780;25.948;2024-01-27T00:53:37;77.18;;;70.97;;
45274;SDS011;31019;43.780;25.948;2024-01-27T00:56:04;98.72;;;91.53;;
45274;SDS011;31019;43.780;25.948;2024-01-27T00:58:31;95.70;;;88.05;;
45274;SDS011;31019;43.780;25.948;2024-01-27T01:00:59;110.22;;;102.22;;
45274;SDS011;31019;43.780;25.948;2024-01-27T01:03:26;79.78;;;72.75;;
45274;SDS011;31019;43.780;25.948;2024-01-27T01:05:53;79.80;;;73.95;;
45274;SDS011;31019;43.780;25.948;2024-01-27T01:08:21;71.63;;;66.07;;
45274;SDS011;31019;43.780;25.948;2024-01-27T01:10:48;74.68;;;68.75;;
45274;SDS011;31019;43.780;25.948;2024-01-27T01:13:15;62.67;;;57.67;;
45274;SDS011;31019;43.780;25.948;2024-01-27T01:15:42;68.70;;;63.40;;
45274;SDS011;31019;43.780;25.948;2024-01-27T01:18:12;77.85;;;72.05;;
45274;SDS011;31019;43.780;25.948;2024-01-27T01:20:39;74.25;;;68.25;;
45274;SDS011;31019;43.780;25.948;2024-01-27T01:23:08;69.43;;;63.72;;
45274;SDS011;31019;43.780;25.948;2024-01-27T01:25:37;72.63;;;66.72;;
45274;SDS011;31019;43.780;25.948;2024-01-27T01:28:04;78.00;;;71.63;;
45274;SDS011;31019;43.780;25.948;2024-01-27T01:30:31;74.13;;;68.03;;
45274;SDS011;31019;43.780;25.948;2024-01-27T01:32:58;75.90;;;70.22;;
45274;SDS011;31019;43.780;25.948;2024-01-27T01:35:25;80.55;;;74.55;;
45274;SDS011;31019;43.780;25.948;2024-01-27T01:37:52;68.07;;;62.47;;
45274;SDS011;31019;43.780;25.948;2024-01-27T01:40:19;68.32;;;62.80;;
45274;SDS011;31019;43.780;25.948;2024-01-27T01:42:51;68.22;;;62.58;;
45274;SDS011;31019;43.780;25.948;2024-01-27T01:47:45;78.10;;;71.90;;
45274;SDS011;31019;43.780;25.948;2024-01-27T01:50:12;75.47;;;69.40;;
45274;SDS011;31019;43.780;25.948;2024-01-27T01:52:39;71.15;;;65.55;;
45274;SDS011;31019;43.780;25.948;2024-01-27T01:55:07;90.78;;;83.95;;
45274;SDS011;31019;43.780;25.948;2024-01-27T01:57:34;100.72;;;93.32;;
45274;SDS011;31019;43.780;25.948;2024-01-27T02:00:03;87.22;;;80.43;;
45274;SDS011;31019;43.780;25.948;2024-01-27T02:02:31;95.53;;;88.18;;
45274;SDS011;31019;43.780;25.948;2024-01-27T02:04:58;98.85;;;91.30;;
45274;SDS011;31019;43.780;25.948;2024-01-27T02:07:25;97.45;;;89.95;;
45274;SDS011;31019;43.780;25.948;2024-01-27T02:09:52;99.47;;;91.63;;
45274;SDS011;31019;43.780;25.948;2024-01-27T02:12:19;96.30;;;88.50;;
45274;SDS011;31019;43.780;25.948;2024-01-27T02:14:45;107.45;;;99.07;;
45274;SDS011;31019;43.780;25.948;2024-01-27T02:17:14;115.30;;;106.90;;
45274;SDS011;31019;43.780;25.948;2024-01-27T02:19:41;99.70;;;91.95;;
45274;SDS011;31019;43.780;25.948;2024-01-27T02:22:07;97.70;;;90.00;;
45274;SDS011;31019;43.780;25.948;2024-01-27T02:24:36;117.18;;;108.35;;
45274;SDS011;31019;43.780;25.948;2024-01-27T02:27:03;109.75;;;100.72;;
45274;SDS011;31019;43.780;25.948;2024-01-27T02:29:30;119.07;;;109.97;;
45274;SDS011;31019;43.780;25.948;2024-01-27T02:31:57;108.82;;;100.38;;
45274;SDS011;31019;43.780;25.948;2024-01-27T02:34:24;123.55;;;112.90;;
45274;SDS011;31019;43.780;25.948;2024-01-27T02:36:51;112.25;;;103.30;;
45274;SDS011;31019;43.780;25.948;2024-01-27T02:39:18;102.72;;;94.85;;
45274;SDS011;31019;43.780;25.948;2024-01-27T02:41:46;104.13;;;95.75;;
45274;SDS011;31019;43.780;25.948;2024-01-27T02:44:13;107.72;;;99.50;;
45274;SDS011;31019;43.780;25.948;2024-01-27T02:46:42;125.18;;;116.78;;
45274;SDS011;31019;43.780;25.948;2024-01-27T02:49:12;120.03;;;111.80;;
45274;SDS011;31019;43.780;25.948;2024-01-27T02:51:39;103.88;;;95.88;;
45274;SDS011;31019;43.780;25.948;2024-01-27T02:54:06;109.00;;;100.68;;
45274;SDS011;31019;43.780;25.948;2024-01-27T02:56:33;105.60;;;97.53;;
45274;SDS011;31019;43.780;25.948;2024-01-27T02:59:01;114.25;;;106.00;;
45274;SDS011;31019;43.780;25.948;2024-01-27T03:01:28;107.53;;;99.47;;
45274;SDS011;31019;43.780;25.948;2024-01-27T03:03:55;106.88;;;98.68;;
45274;SDS011;31019;43.780;25.948;2024-01-27T03:06:22;97.63;;;90.13;;
45274;SDS011;31019;43.780;25.948;2024-01-27T03:08:49;108.57;;;100.47;;
45274;SDS011;31019;43.780;25.948;2024-01-27T03:11:16;110.63;;;102.20;;
45274;SDS011;31019;43.780;25.948;2024-01-27T03:13:43;105.72;;;97.43;;
45274;SDS011;31019;43.780;25.948;2024-01-27T03:16:12;102.38;;;94.65;;
45274;SDS011;31019;43.780;25.948;2024-01-27T03:18:42;96.53;;;89.30;;
45274;SDS011;31019;43.780;25.948;2024-01-27T03:21:09;90.75;;;83.35;;
45274;SDS011;31019;43.780;25.948;2024-01-27T03:23:40;85.82;;;78.88;;
45274;SDS011;31019;43.780;25.948;2024-01-27T03:26:07;87.90;;;80.88;;
45274;SDS011;31019;43.780;25.948;2024-01-27T03:28:34;98.22;;;90.32;;
45274;SDS011;31019;43.780;25.948;2024-01-27T03:31:01;95.93;;;88.50;;
45274;SDS011;31019;43.780;25.948;2024-01-27T03:33:29;84.57;;;77.80;;
45274;SDS011;31019;43.780;25.948;2024-01-27T03:35:56;86.05;;;79.22;;
45274;SDS011;31019;43.780;25.948;2024-01-27T03:38:23;95.88;;;88.07;;
45274;SDS011;31019;43.780;25.948;2024-01-27T03:40:50;96.65;;;89.05;;
45274;SDS011;31019;43.780;25.948;2024-01-27T03:43:17;98.22;;;90.63;;
45274;SDS011;31019;43.780;25.948;2024-01-27T03:45:44;96.22;;;88.85;;
45274;SDS011;31019;43.780;25.948;2024-01-27T03:48:10;101.38;;;93.50;;
45274;SDS011;31019;43.780;25.948;2024-01-27T03:50:38;101.18;;;93.38;;
45274;SDS011;31019;43.780;25.948;2024-01-27T03:53:07;103.97;;;96.28;;
45274;SDS011;31019;43.780;25.948;2024-01-27T03:55:34;92.72;;;85.63;;
45274;SDS011;31019;43.780;25.948;2024-01-27T03:58:01;94.85;;;87.70;;
45274;SDS011;31019;43.780;25.948;2024-01-27T04:00:28;91.75;;;84.53;;
45274;SDS011;31019;43.780;25.948;2024-01-27T04:02:58;95.20;;;88.10;;
45274;SDS011;31019;43.780;25.948;2024-01-27T04:05:24;87.15;;;80.55;;
45274;SDS011;31019;43.780;25.948;2024-01-27T04:07:53;93.40;;;86.35;;
45274;SDS011;31019;43.780;25.948;2024-01-27T04:10:20;98.40;;;91.20;;
45274;SDS011;31019;43.780;25.948;2024-01-27T04:12:47;107.72;;;99.82;;
45274;SDS011;31019;43.780;25.948;2024-01-27T04:15:14;112.38;;;103.97;;
45274;SDS011;31019;43.780;25.948;2024-01-27T04:17:41;98.43;;;91.20;;
45274;SDS011;31019;43.780;25.948;2024-01-27T04:20:08;87.82;;;81.13;;
45274;SDS011;31019;43.780;25.948;2024-01-27T04:22:39;85.50;;;79.00;;
45274;SDS011;31019;43.780;25.948;2024-01-27T04:25:10;90.22;;;83.22;;
45274;SDS011;31019;43.780;25.948;2024-01-27T04:27:37;82.00;;;75.78;;
45274;SDS011;31019;43.780;25.948;2024-01-27T04:30:05;74.93;;;69.00;;
45274;SDS011;31019;43.780;25.948;2024-01-27T04:32:33;84.35;;;77.85;;
45274;SDS011;31019;43.780;25.948;2024-01-27T04:35:01;78.25;;;72.25;;
45274;SDS011;31019;43.780;25.948;2024-01-27T04:37:28;79.25;;;73.25;;
45274;SDS011;31019;43.780;25.948;2024-01-27T04:39:56;78.75;;;72.80;;
45274;SDS011;31019;43.780;25.948;2024-01-27T04:42:26;85.97;;;79.88;;
45274;SDS011;31019;43.780;25.948;2024-01-27T04:44:53;88.53;;;82.05;;
45274;SDS011;31019;43.780;25.948;2024-01-27T04:47:20;98.22;;;91.10;;
45274;SDS011;31019;43.780;25.948;2024-01-27T04:49:47;89.35;;;83.05;;
45274;SDS011;31019;43.780;25.948;2024-01-27T04:52:14;80.72;;;74.70;;
45274;SDS011;31019;43.780;25.948;2024-01-27T04:54:41;88.90;;;82.40;;
45274;SDS011;31019;43.780;25.948;2024-01-27T04:57:08;82.45;;;76.55;;
45274;SDS011;31019;43.780;25.948;2024-01-27T04:59:36;73.15;;;67.70;;
45274;SDS011;31019;43.780;25.948;2024-01-27T05:02:03;81.05;;;74.45;;
45274;SDS011;31019;43.780;25.948;2024-01-27T05:04:30;86.40;;;80.10;;
45274;SDS011;31019;43.780;25.948;2024-01-27T05:06:57;82.22;;;76.13;;
45274;SDS011;31019;43.780;25.948;2024-01-27T05:09:24;76.22;;;70.43;;
45274;SDS011;31019;43.780;25.948;2024-01-27T05:11:51;70.20;;;64.70;;
45274;SDS011;31019;43.780;25.948;2024-01-27T05:14:18;76.38;;;70.68;;
45274;SDS011;31019;43.780;25.948;2024-01-27T05:16:47;73.53;;;67.82;;
45274;SDS011;31019;43.780;25.948;2024-01-27T05:19:13;67.22;;;61.83;;
45274;SDS011;31019;43.780;25.948;2024-01-27T05:21:42;71.57;;;66.07;;
45274;SDS011;31019;43.780;25.948;2024-01-27T05:24:09;75.72;;;70.00;;
45274;SDS011;31019;43.780;25.948;2024-01-27T05:26:38;67.78;;;62.42;;
45274;SDS011;31019;43.780;25.948;2024-01-27T05:29:08;61.13;;;56.33;;
45274;SDS011;31019;43.780;25.948;2024-01-27T05:31:35;61.63;;;56.83;;
45274;SDS011;31019;43.780;25.948;2024-01-27T05:34:04;60.72;;;56.13;;
45274;SDS011;31019;43.780;25.948;2024-01-27T05:36:31;63.42;;;58.83;;
45274;SDS011;31019;43.780;25.948;2024-01-27T05:38:58;61.83;;;57.25;;
45274;SDS011;31019;43.780;25.948;2024-01-27T05:41:28;68.20;;;63.45;;
45274;SDS011;31019;43.780;25.948;2024-01-27T05:43:55;70.07;;;65.07;;
45274;SDS011;31019;43.780;25.948;2024-01-27T05:46:23;67.32;;;62.53;;
45274;SDS011;31019;43.780;25.948;2024-01-27T05:48:50;64.07;;;59.47;;
45274;SDS011;31019;43.780;25.948;2024-01-27T05:51:20;61.38;;;56.97;;
45274;SDS011;31019;43.780;25.948;2024-01-27T05:53:47;57.80;;;53.60;;
45274;SDS011;31019;43.780;25.948;2024-01-27T05:56:14;55.42;;;51.42;;
45274;SDS011;31019;43.780;25.948;2024-01-27T05:58:41;52.95;;;49.10;;
45274;SDS011;31019;43.780;25.948;2024-01-27T06:01:08;54.00;;;50.03;;
45274;SDS011;31019;43.780;25.948;2024-01-27T06:03:35;52.45;;;48.80;;
45274;SDS011;31019;43.780;25.948;2024-01-27T06:06:02;52.10;;;48.50;;
45274;SDS011;31019;43.780;25.948;2024-01-27T06:08:31;49.75;;;46.35;;
45274;SDS011;31019;43.780;25.948;2024-01-27T06:10:57;49.72;;;46.33;;
45274;SDS011;31019;43.780;25.948;2024-01-27T06:13:24;50.40;;;47.00;;
45274;SDS011;31019;43.780;25.948;2024-01-27T06:15:51;51.78;;;48.22;;
45274;SDS011;31019;43.780;25.948;2024-01-27T06:18:18;54.17;;;50.60;;
45274;SDS011;31019;43.780;25.948;2024-01-27T06:20:45;50.08;;;46.78;;
45274;SDS011;31019;43.780;25.948;2024-01-27T06:23:12;47.10;;;44.00;;
45274;SDS011;31019;43.780;25.948;2024-01-27T06:25:44;49.78;;;46.38;;
45274;SDS011;31019;43.780;25.948;2024-01-27T06:28:10;49.70;;;46.40;;
45274;SDS011;31019;43.780;25.948;2024-01-27T06:30:37;45.90;;;42.72;;
45274;SDS011;31019;43.780;25.948;2024-01-27T06:33:07;48.88;;;45.22;;
45274;SDS011;31019;43.780;25.948;2024-01-27T06:35:34;44.40;;;41.35;;
45274;SDS011;31019;43.780;25.948;2024-01-27T06:38:01;46.67;;;43.47;;
45274;SDS011;31019;43.780;25.948;2024-01-27T06:40:28;48.67;;;45.38;;
45274;SDS011;31019;43.780;25.948;2024-01-27T06:42:56;47.05;;;43.75;;
45274;SDS011;31019;43.780;25.948;2024-01-27T06:45:23;45.28;;;42.08;;
45274;SDS011;31019;43.780;25.948;2024-01-27T06:47:50;61.20;;;56.20;;
45274;SDS011;31019;43.780;25.948;2024-01-27T06:50:18;58.83;;;53.55;;
45274;SDS011;31019;43.780;25.948;2024-01-27T06:52:45;51.15;;;47.38;;
45274;SDS011;31019;43.780;25.948;2024-01-27T06:55:12;39.65;;;36.85;;
45274;SDS011;31019;43.780;25.948;2024-01-27T06:57:42;40.13;;;37.40;;
45274;SDS011;31019;43.780;25.948;2024-01-27T07:00:11;36.38;;;33.97;;
45274;SDS011;31019;43.780;25.948;2024-01-27T07:02:40;36.13;;;33.63;;
45274;SDS011;31019;43.780;25.948;2024-01-27T07:05:07;36.33;;;33.72;;
45274;SDS011;31019;43.780;25.948;2024-01-27T07:07:35;32.60;;;30.30;;
45274;SDS011;31019;43.780;25.948;2024-01-27T07:10:02;39.65;;;36.92;;
45274;SDS011;31019;43.780;25.948;2024-01-27T07:12:29;41.25;;;38.35;;
45274;SDS011;31019;43.780;25.948;2024-01-27T07:14:56;39.53;;;36.83;;
45274;SDS011;31019;43.780;25.948;2024-01-27T07:17:26;37.08;;;34.38;;
45274;SDS011;31019;43.780;25.948;2024-01-27T07:19:53;38.35;;;35.35;;
45274;SDS011;31019;43.780;25.948;2024-01-27T07:22:20;42.50;;;39.38;;
45274;SDS011;31019;43.780;25.948;2024-01-27T07:24:47;41.83;;;38.55;;
45274;SDS011;31019;43.780;25.948;2024-01-27T07:27:16;40.67;;;37.58;;
45274;SDS011;31019;43.780;25.948;2024-01-27T07:29:43;43.92;;;40.83;;
45274;SDS011;31019;43.780;25.948;2024-01-27T07:32:10;43.80;;;40.60;;
45274;SDS011;31019;43.780;25.948;2024-01-27T07:34:40;45.00;;;41.83;;
45274;SDS011;31019;43.780;25.948;2024-01-27T07:37:07;46.08;;;42.88;;
45274;SDS011;31019;43.780;25.948;2024-01-27T07:39:35;48.60;;;45.10;;
45274;SDS011;31019;43.780;25.948;2024-01-27T07:42:01;56.20;;;51.67;;
45274;SDS011;31019;43.780;25.948;2024-01-27T07:44:28;57.47;;;53.58;;
45274;SDS011;31019;43.780;25.948;2024-01-27T07:46:56;64.03;;;59.63;;
45274;SDS011;31019;43.780;25.948;2024-01-27T07:49:24;67.82;;;63.15;;
45274;SDS011;31019;43.780;25.948;2024-01-27T07:51:52;76.60;;;71.40;;
45274;SDS011;31019;43.780;25.948;2024-01-27T07:54:20;80.05;;;74.10;;
45274;SDS011;31019;43.780;25.948;2024-01-27T07:56:49;89.65;;;83.65;;
45274;SDS011;31019;43.780;25.948;2024-01-27T07:59:16;104.57;;;97.78;;
45274;SDS011;31019;43.780;25.948;2024-01-27T08:01:43;108.65;;;101.45;;
45274;SDS011;31019;43.780;25.948;2024-01-27T08:04:10;112.72;;;105.15;;
45274;SDS011;31019;43.780;25.948;2024-01-27T08:06:45;116.53;;;108.75;;
45274;SDS011;31019;43.780;25.948;2024-01-27T08:09:15;134.63;;;125.55;;
45274;SDS011;31019;43.780;25.948;2024-01-27T08:11:43;142.75;;;133.18;;
45274;SDS011;31019;43.780;25.948;2024-01-27T08:14:10;144.38;;;134.77;;
45274;SDS011;31019;43.780;25.948;2024-01-27T08:16:37;148.27;;;138.07;;
45274;SDS011;31019;43.780;25.948;2024-01-27T08:19:04;163.18;;;151.48;;
45274;SDS011;31019;43.780;25.948;2024-01-27T08:21:31;164.35;;;152.80;;
45274;SDS011;31019;43.780;25.948;2024-01-27T08:23:58;171.73;;;159.48;;
45274;SDS011;31019;43.780;25.948;2024-01-27T08:26:26;182.18;;;169.13;;
45274;SDS011;31019;43.780;25.948;2024-01-27T08:28:53;184.35;;;171.18;;
45274;SDS011;31019;43.780;25.948;2024-01-27T08:31:21;183.13;;;169.52;;
45274;SDS011;31019;43.780;25.948;2024-01-27T08:33:48;187.52;;;174.30;;
45274;SDS011;31019;43.780;25.948;2024-01-27T08:36:15;206.07;;;191.60;;
45274;SDS011;31019;43.780;25.948;2024-01-27T08:38:42;212.30;;;197.05;;
45274;SDS011;31019;43.780;25.948;2024-01-27T08:41:10;184.45;;;170.88;;
45274;SDS011;31019;43.780;25.948;2024-01-27T08:43:38;194.95;;;181.13;;
45274;SDS011;31019;43.780;25.948;2024-01-27T08:46:06;197.13;;;183.30;;
45274;SDS011;31019;43.780;25.948;2024-01-27T08:48:36;196.48;;;182.10;;
45274;SDS011;31019;43.780;25.948;2024-01-27T08:51:03;218.43;;;202.43;;
45274;SDS011;31019;43.780;25.948;2024-01-27T08:53:30;212.55;;;197.32;;
45274;SDS011;31019;43.780;25.948;2024-01-27T08:55:57;217.45;;;202.07;;
45274;SDS011;31019;43.780;25.948;2024-01-27T08:58:24;221.38;;;205.80;;
45274;SDS011;31019;43.780;25.948;2024-01-27T09:00:52;206.50;;;191.98;;
45274;SDS011;31019;43.780;25.948;2024-01-27T09:03:19;213.45;;;197.68;;
45274;SDS011;31019;43.780;25.948;2024-01-27T09:05:46;209.45;;;195.20;;
45274;SDS011;31019;43.780;25.948;2024-01-27T09:08:14;212.63;;;198.15;;
45274;SDS011;31019;43.780;25.948;2024-01-27T09:10:41;210.07;;;196.05;;
45274;SDS011;31019;43.780;25.948;2024-01-27T09:13:08;196.25;;;182.52;;
45274;SDS011;31019;43.780;25.948;2024-01-27T09:15:35;196.18;;;182.50;;
45274;SDS011;31019;43.780;25.948;2024-01-27T09:18:04;177.10;;;165.18;;
45274;SDS011;31019;43.780;25.948;2024-01-27T09:20:31;159.13;;;148.23;;
45274;SDS011;31019;43.780;25.948;2024-01-27T09:22:58;149.73;;;139.90;;
45274;SDS011;31019;43.780;25.948;2024-01-27T09:25:25;147.07;;;137.38;;
45274;SDS011;31019;43.780;25.948;2024-01-27T09:27:53;149.45;;;139.65;;
45274;SDS011;31019;43.780;25.948;2024-01-27T09:30:20;143.73;;;134.32;;
45274;SDS011;31019;43.780;25.948;2024-01-27T09:32:47;140.65;;;131.38;;
45274;SDS011;31019;43.780;25.948;2024-01-27T09:35:18;150.85;;;138.23;;
45274;SDS011;31019;43.780;25.948;2024-01-27T09:37:45;139.50;;;130.20;;
45274;SDS011;31019;43.780;25.948;2024-01-27T09:40:12;132.48;;;123.80;;
45274;SDS011;31019;43.780;25.948;2024-01-27T09:42:39;128.30;;;119.80;;
45274;SDS011;31019;43.780;25.948;2024-01-27T09:45:13;147.32;;;137.73;;
45274;SDS011;31019;43.780;25.948;2024-01-27T09:47:40;113.72;;;106.38;;
45274;SDS011;31019;43.780;25.948;2024-01-27T09:50:12;131.25;;;122.55;;
45274;SDS011;31019;43.780;25.948;2024-01-27T09:52:41;137.40;;;128.10;;
45274;SDS011;31019;43.780;25.948;2024-01-27T09:55:09;134.32;;;125.30;;
45274;SDS011;31019;43.780;25.948;2024-01-27T09:57:36;109.07;;;102.07;;
45274;SDS011;31019;43.780;25.948;2024-01-27T10:00:09;72.22;;;67.72;;
45274;SDS011;31019;43.780;25.948;2024-01-27T10:02:38;82.93;;;77.63;;
45274;SDS011;31019;43.780;25.948;2024-01-27T10:05:07;116.72;;;109.25;;
45274;SDS011;31019;43.780;25.948;2024-01-27T10:07:35;94.93;;;88.93;;
45274;SDS011;31019;43.780;25.948;2024-01-27T10:10:04;105.70;;;98.15;;
45274;SDS011;31019;43.780;25.948;2024-01-27T10:12:32;103.63;;;96.88;;
45274;SDS011;31019;43.780;25.948;2024-01-27T10:15:05;104.68;;;97.78;;
45274;SDS011;31019;43.780;25.948;2024-01-27T10:17:32;91.05;;;85.00;;
45274;SDS011;31019;43.780;25.948;2024-01-27T10:20:01;105.18;;;98.20;;
45274;SDS011;31019;43.780;25.948;2024-01-27T10:22:36;118.78;;;110.97;;
45274;SDS011;31019;43.780;25.948;2024-01-27T10:25:07;125.60;;;117.10;;
45274;SDS011;31019;43.780;25.948;2024-01-27T10:27:37;138.57;;;129.13;;
45274;SDS011;31019;43.780;25.948;2024-01-27T10:30:07;144.93;;;135.05;;
45274;SDS011;31019;43.780;25.948;2024-01-27T10:32:42;147.45;;;137.57;;
45274;SDS011;31019;43.780;25.948;2024-01-27T10:35:12;136.55;;;127.45;;
45274;SDS011;31019;43.780;25.948;2024-01-27T10:37:39;116.65;;;109.15;;
45274;SDS011;31019;43.780;25.948;2024-01-27T10:40:08;81.07;;;75.75;;
45274;SDS011;31019;43.780;25.948;2024-01-27T10:42:38;106.22;;;99.20;;
45274;SDS011;31019;43.780;25.948;2024-01-27T10:45:05;136.40;;;127.18;;
45274;SDS011;31019;43.780;25.948;2024-01-27T10:47:32;142.98;;;133.45;;
45274;SDS011;31019;43.780;25.948;2024-01-27T10:49:59;120.75;;;112.65;;
45274;SDS011;31019;43.780;25.948;2024-01-27T10:52:28;126.85;;;118.40;;
45274;SDS011;31019;43.780;25.948;2024-01-27T10:54:58;157.93;;;147.43;;
45274;SDS011;31019;43.780;25.948;2024-01-27T10:57:27;154.40;;;144.23;;
45274;SDS011;31019;43.780;25.948;2024-01-27T10:59:56;162.55;;;151.73;;
45274;SDS011;31019;43.780;25.948;2024-01-27T11:02:24;156.15;;;145.40;;
45274;SDS011;31019;43.780;25.948;2024-01-27T11:04:51;176.15;;;164.30;;
45274;SDS011;31019;43.780;25.948;2024-01-27T11:07:21;167.30;;;155.50;;
45274;SDS011;31019;43.780;25.948;2024-01-27T11:09:48;186.95;;;174.07;;
45274;SDS011;31019;43.780;25.948;2024-01-27T11:12:17;196.07;;;182.50;;
45274;SDS011;31019;43.780;25.948;2024-01-27T11:14:47;204.20;;;189.98;;
45274;SDS011;31019;43.780;25.948;2024-01-27T11:17:14;208.10;;;193.85;;
45274;SDS011;31019;43.780;25.948;2024-01-27T11:19:41;194.93;;;181.52;;
45274;SDS011;31019;43.780;25.948;2024-01-27T11:22:17;169.20;;;157.55;;
45274;SDS011;31019;43.780;25.948;2024-01-27T11:24:51;182.23;;;169.77;;
45274;SDS011;31019;43.780;25.948;2024-01-27T11:27:18;172.10;;;160.40;;
45274;SDS011;31019;43.780;25.948;2024-01-27T11:29:55;157.50;;;146.80;;
45274;SDS011;31019;43.780;25.948;2024-01-27T11:32:22;160.43;;;149.23;;
45274;SDS011;31019;43.780;25.948;2024-01-27T11:34:49;158.18;;;147.75;;
45274;SDS011;31019;43.780;25.948;2024-01-27T11:37:17;116.18;;;108.47;;
45274;SDS011;31019;43.780;25.948;2024-01-27T11:39:45;150.73;;;140.95;;
45274;SDS011;31019;43.780;25.948;2024-01-27T11:42:12;153.13;;;143.05;;
45274;SDS011;31019;43.780;25.948;2024-01-27T11:44:40;155.85;;;145.55;;
45274;SDS011;31019;43.780;25.948;2024-01-27T11:47:15;136.13;;;127.45;;
45274;SDS011;31019;43.780;25.948;2024-01-27T11:49:42;106.72;;;100.00;;
45274;SDS011;31019;43.780;25.948;2024-01-27T11:52:12;120.35;;;112.90;;
45274;SDS011;31019;43.780;25.948;2024-01-27T11:54:39;78.47;;;73.05;;
45274;SDS011;31019;43.780;25.948;2024-01-27T11:57:06;93.05;;;86.78;;
45274;SDS011;31019;43.780;25.948;2024-01-27T11:59:33;102.80;;;96.00;;
45274;SDS011;31019;43.780;25.948;2024-01-27T12:02:01;88.47;;;82.57;;
45274;SDS011;31019;43.780;25.948;2024-01-27T12:04:29;98.93;;;92.72;;
45274;SDS011;31019;43.780;25.948;2024-01-27T12:06:56;72.78;;;68.00;;
45274;SDS011;31019;43.780;25.948;2024-01-27T12:09:23;92.18;;;86.28;;
45274;SDS011;31019;43.780;25.948;2024-01-27T12:11:50;111.57;;;104.57;;
45274;SDS011;31019;43.780;25.948;2024-01-27T12:14:17;121.35;;;113.25;;
45274;SDS011;31019;43.780;25.948;2024-01-27T12:16:44;117.30;;;109.70;;
45274;SDS011;31019;43.780;25.948;2024-01-27T12:19:12;126.70;;;118.75;;
45274;SDS011;31019;43.780;25.948;2024-01-27T12:21:48;104.05;;;97.55;;
45274;SDS011;31019;43.780;25.948;2024-01-27T12:24:15;99.07;;;92.72;;
45274;SDS011;31019;43.780;25.948;2024-01-27T12:26:44;75.72;;;70.72;;
45274;SDS011;31019;43.780;25.948;2024-01-27T12:29:11;83.43;;;78.13;;
45274;SDS011;31019;43.780;25.948;2024-01-27T12:31:38;90.57;;;84.82;;
45274;SDS011;31019;43.780;25.948;2024-01-27T12:34:05;102.00;;;95.60;;
45274;SDS011;31019;43.780;25.948;2024-01-27T12:36:34;104.57;;;97.68;;
45274;SDS011;31019;43.780;25.948;2024-01-27T12:39:11;77.95;;;72.80;;
45274;SDS011;31019;43.780;25.948;2024-01-27T12:41:41;74.82;;;69.82;;
45274;SDS011;31019;43.780;25.948;2024-01-27T12:44:08;63.60;;;59.47;;
45274;SDS011;31019;43.780;25.948;2024-01-27T12:46:35;61.17;;;56.85;;
45274;SDS011;31019;43.780;25.948;2024-01-27T12:49:02;79.75;;;74.55;;
45274;SDS011;31019;43.780;25.948;2024-01-27T12:51:29;93.95;;;87.25;;
45274;SDS011;31019;43.780;25.948;2024-01-27T12:53:56;94.90;;;88.95;;
45274;SDS011;31019;43.780;25.948;2024-01-27T12:56:24;93.43;;;87.43;;
45274;SDS011;31019;43.780;25.948;2024-01-27T12:58:51;106.47;;;99.68;;
45274;SDS011;31019;43.780;25.948;2024-01-27T13:01:18;90.68;;;84.93;;
45274;SDS011;31019;43.780;25.948;2024-01-27T13:03:45;96.68;;;90.47;;
45274;SDS011;31019;43.780;25.948;2024-01-27T13:06:12;92.68;;;86.95;;
45274;SDS011;31019;43.780;25.948;2024-01-27T13:08:40;98.22;;;91.82;;
45274;SDS011;31019;43.780;25.948;2024-01-27T13:11:07;119.38;;;111.75;;
45274;SDS011;31019;43.780;25.948;2024-01-27T13:13:36;101.55;;;95.22;;
45274;SDS011;31019;43.780;25.948;2024-01-27T13:16:03;98.05;;;91.90;;
45274;SDS011;31019;43.780;25.948;2024-01-27T13:18:30;83.32;;;78.07;;
45274;SDS011;31019;43.780;25.948;2024-01-27T13:20:57;99.57;;;93.38;;
45274;SDS011;31019;43.780;25.948;2024-01-27T13:23:24;84.15;;;78.75;;
45274;SDS011;31019;43.780;25.948;2024-01-27T13:25:51;120.30;;;112.65;;
45274;SDS011;31019;43.780;25.948;2024-01-27T13:28:18;131.57;;;122.97;;
45274;SDS011;31019;43.780;25.948;2024-01-27T13:30:46;125.63;;;117.47;;
45274;SDS011;31019;43.780;25.948;2024-01-27T13:33:14;124.13;;;115.97;;
45274;SDS011;31019;43.780;25.948;2024-01-27T13:35:41;98.70;;;92.47;;
45274;SDS011;31019;43.780;25.948;2024-01-27T13:38:11;115.57;;;108.28;;
45274;SDS011;31019;43.780;25.948;2024-01-27T13:40:38;111.53;;;104.63;;
45274;SDS011;31019;43.780;25.948;2024-01-27T13:43:07;114.28;;;106.97;;
45274;SDS011;31019;43.780;25.948;2024-01-27T13:45:34;125.22;;;117.28;;
45274;SDS011;31019;43.780;25.948;2024-01-27T13:48:02;133.25;;;125.00;;
45274;SDS011;31019;43.780;25.948;2024-01-27T13:50:29;130.18;;;121.85;;
45274;SDS011;31019;43.780;25.948;2024-01-27T13:52:57;125.85;;;117.35;;
45274;SDS011;31019;43.780;25.948;2024-01-27T13:55:24;128.23;;;119.90;;
45274;SDS011;31019;43.780;25.948;2024-01-27T13:57:51;136.70;;;128.05;;
45274;SDS011;31019;43.780;25.948;2024-01-27T14:00:18;136.50;;;127.70;;
45274;SDS011;31019;43.780;25.948;2024-01-27T14:02:45;128.23;;;119.93;;
45274;SDS011;31019;43.780;25.948;2024-01-27T14:05:14;136.48;;;127.88;;